Погода Кучеровкана неделю

Ростовская область, Россия

20 - 26 мая
  • 20мая
    Сегодня
    +9°
    +24°
    Практически безоблачно
    ВремяПогодаТемператураВлажностьДавлениеВетер, м/сВероятность осадков
    00:00Ясно и безоблачно+13°C73 %759 мм1.5 м/с2 %
    03:00Ясно и безоблачно+9°C91 %759 мм1.8 м/с2 %
    06:00Ясно и безоблачно+10°C84 %760 мм2.0 м/с2 %
    09:00Ясно и безоблачно+20°C55 %760 мм1.8 м/с2 %
    12:00Практически безоблачно+24°C41 %760 мм2.2 м/с2 %
    15:00Практически безоблачно+24°C40 %760 мм1.5 м/с2 %
    18:00Практически безоблачно+22°C40 %760 мм2.0 м/с2 %
    21:00Ясно и безоблачно+16°C64 %760 мм2.2 м/с2 %
  • 21мая
    Вторник
    +10°
    +26°
    Облачно с прояснениями
    ВремяПогодаТемператураВлажностьДавлениеВетер, м/сВероятность осадков
    00:00Ясно и безоблачно+15°C68 %761 мм0.6 м/с2 %
    03:00Ясно и безоблачно+11°C88 %761 мм1.9 м/с2 %
    06:00Ясно и безоблачно+12°C80 %762 мм1.9 м/с2 %
    09:00Практически безоблачно+22°C47 %762 мм1.3 м/с2 %
    12:00Небольшая облачность+26°C32 %762 мм2.7 м/с2 %
    15:00Облачно с прояснениями+26°C29 %761 мм2.3 м/с2 %
    18:00Практически безоблачно+24°C35 %760 мм2.7 м/с2 %
    21:00Ясно и безоблачно+18°C63 %761 мм2.1 м/с2 %
  • 22мая
    Среда
    +12°
    +27°
    Практически безоблачно
    ВремяПогодаТемператураВлажностьДавлениеВетер, м/сВероятность осадков
    00:00Ясно и безоблачно+14°C73 %761 мм2.5 м/с2 %
    03:00Ясно и безоблачно+12°C74 %761 мм1.9 м/с2 %
    06:00Ясно и безоблачно+13°C64 %761 мм2.1 м/с2 %
    09:00Ясно и безоблачно+24°C37 %761 мм2.5 м/с2 %
    12:00Небольшая облачность+27°C24 %760 мм3.3 м/с2 %
    15:00Практически безоблачно+28°C22 %759 мм3.7 м/с2 %
    18:00Ясно и безоблачно+25°C24 %759 мм2.8 м/с2 %
    21:00Ясно и безоблачно+19°C33 %759 мм2.7 м/с2 %
  • 23мая
    Четверг
    +13°
    +28°
    Ясно и безоблачно
    ВремяПогодаТемператураВлажностьДавлениеВетер, м/сВероятность осадков
    00:00Ясно и безоблачно+14°C52 %759 мм2.4 м/с2 %
    03:00Ясно и безоблачно+12°C60 %759 мм2.0 м/с2 %
    06:00Ясно и безоблачно+14°C54 %759 мм2.7 м/с2 %
    09:00Ясно и безоблачно+23°C40 %759 мм3.3 м/с2 %
    12:00Ясно и безоблачно+28°C23 %759 мм6.3 м/с2 %
    15:00Ясно и безоблачно+28°C21 %759 мм5.7 м/с2 %
    18:00Ясно и безоблачно+26°C21 %758 мм5.3 м/с2 %
    21:00Ясно и безоблачно+19°C30 %759 мм3.0 м/с2 %
Мы используем cookies
Соглашаюсь